Terminal Aerodrome Forecast
Issued by NWS Norman, OK

Current Version | Previous Version | Text Only | Print | Product List | Glossary Off
Versions: 1 2 3 4 5 6 7 8 9 10 11 12 13 14 15 16 17 18 19 20 21 22 23

000
FTUS44 KOUN 270520
TAFOKC
TAF
KOKC 270520Z 2706/2806 17010KT P6SM SCT250=

USA.gov is the U.S. government's official web portal to all federal, state and local government web resources and services.